Time;durP1;ratioP1;P1;durP2;ratioP2;P2;SDS_P1;SDS_P2;PMS_P1;PMS_P2;Temp;Humidity;BMP_temperature;BMP_pressure;BME280_temperature;BME280_humidity;BME280_pressure;Samples;Min_cycle;Max_cycle;Signal;HPM_P1;HPM_P2
2021/03/02 00:00:30;;;;;;;0.17;0.17;;;9.80;99.90;;;;;;5070367;28;20515;-87
2021/03/02 00:02:57;;;;;;;0.70;0.52;;;10.00;99.90;;;;;;5081936;28;20031;-87
2021/03/02 00:05:23;;;;;;;0.22;0.22;;;10.40;99.90;;;;;;5075438;28;20036;-89
2021/03/02 00:07:48;;;;;;;5.10;2.92;;;10.10;99.90;;;;;;5079132;28;20695;-87
2021/03/02 00:10:15;;;;;;;0.45;0.45;;;9.90;99.90;;;;;;5073726;28;20111;-88
2021/03/02 00:12:42;;;;;;;0.15;0.15;;;9.60;99.90;;;;;;5082586;28;20040;-89
2021/03/02 00:15:11;;;;;;;;;;;10.00;99.90;;;;;;5078052;28;20111;-89
2021/03/02 00:17:47;;;;;;;0.00;0.00;;;10.00;99.90;;;;;;5077527;28;19995;-89
2021/03/02 00:20:23;;;;;;;0.82;0.82;;;9.80;99.90;;;;;;5075499;28;20032;-88
2021/03/02 00:22:58;;;;;;;0.52;0.43;;;9.30;99.90;;;;;;5077634;28;20050;-87
2021/03/02 00:25:33;;;;;;;2.38;1.60;;;10.00;99.90;;;;;;5079290;28;20466;-89
2021/03/02 00:28:07;;;;;;;0.00;0.00;;;9.60;99.90;;;;;;5076432;28;20036;-89
2021/03/02 00:30:34;;;;;;;1.20;0.77;;;9.70;99.90;;;;;;5078197;28;20040;-88
2021/03/02 00:33:03;;;;;;;0.77;0.63;;;9.60;99.90;;;;;;5080492;28;20043;-88
2021/03/02 00:35:29;;;;;;;5.35;2.47;;;9.50;99.90;;;;;;5078687;28;20055;-87
2021/03/02 00:37:56;;;;;;;0.20;0.20;;;9.30;99.90;;;;;;5075137;28;20538;-87
2021/03/02 00:40:23;;;;;;;0.20;0.20;;;9.60;99.90;;;;;;5076212;28;20073;-87
2021/03/02 00:42:51;;;;;;;0.10;0.10;;;9.70;99.90;;;;;;5083196;28;20032;-87
2021/03/02 00:45:20;;;;;;;4.25;0.77;;;9.90;99.90;;;;;;5077066;28;20036;-87
2021/03/02 00:47:50;;;;;;;0.10;0.10;;;9.80;99.90;;;;;;5085331;28;20022;-87
2021/03/02 00:50:17;;;;;;;0.10;0.10;;;9.90;99.90;;;;;;5085110;28;20111;-88
2021/03/02 00:52:45;;;;;;;0.05;0.05;;;9.90;99.90;;;;;;5074689;28;20404;-87
2021/03/02 00:55:12;;;;;;;4.07;1.25;;;9.70;99.90;;;;;;5078458;28;20495;-87
2021/03/02 00:57:38;;;;;;;9.30;1.83;;;9.60;99.90;;;;;;5082730;28;20111;-88
2021/03/02 01:00:06;;;;;;;2.28;0.88;;;9.90;99.90;;;;;;5077356;28;20111;-88
2021/03/02 01:02:32;;;;;;;0.43;0.17;;;9.60;99.90;;;;;;5077171;28;20788;-88
2021/03/02 01:04:58;;;;;;;1.33;1.00;;;9.30;99.90;;;;;;5072140;28;20028;-89
2021/03/02 01:07:24;;;;;;;0.32;0.32;;;9.50;99.90;;;;;;5077518;28;20727;-89
2021/03/02 01:09:50;;;;;;;0.40;0.40;;;9.80;99.90;;;;;;5081261;28;20036;-88
2021/03/02 01:12:16;;;;;;;0.82;0.82;;;9.60;99.90;;;;;;5086507;28;20028;-88
2021/03/02 01:14:43;;;;;;;6.82;0.80;;;9.90;99.90;;;;;;5086765;28;20021;-88
2021/03/02 01:17:09;;;;;;;1.48;0.73;;;9.90;99.90;;;;;;5075390;28;20059;-89
2021/03/02 01:19:34;;;;;;;1.52;1.02;;;9.60;99.90;;;;;;5073829;28;20035;-88
2021/03/02 01:22:00;;;;;;;0.68;0.68;;;9.70;99.90;;;;;;5078398;28;20036;-88
2021/03/02 01:24:26;;;;;;;0.15;0.15;;;9.60;99.90;;;;;;5078466;28;20425;-88
2021/03/02 01:26:52;;;;;;;0.47;0.47;;;9.50;99.90;;;;;;5076926;28;20056;-88
2021/03/02 01:29:18;;;;;;;3.13;1.90;;;9.30;99.90;;;;;;5078999;28;20048;-88
2021/03/02 01:31:44;;;;;;;0.40;0.40;;;9.40;99.90;;;;;;5084918;28;20043;-87
2021/03/02 01:34:09;;;;;;;1.63;1.52;;;9.30;99.90;;;;;;5079983;28;20693;-89
2021/03/02 01:36:35;;;;;;;5.65;0.75;;;9.60;99.90;;;;;;5086300;28;20062;-86
2021/03/02 01:39:02;;;;;;;0.98;0.98;;;9.60;99.90;;;;;;5076178;28;20030;-86
2021/03/02 01:41:29;;;;;;;2.72;1.70;;;9.40;99.90;;;;;;5080001;28;20044;-86
2021/03/02 01:43:55;;;;;;;0.35;0.35;;;9.20;99.90;;;;;;5085306;28;20395;-86
2021/03/02 01:46:22;;;;;;;0.30;0.30;;;9.50;99.90;;;;;;5088080;28;20039;-86
2021/03/02 01:48:49;;;;;;;0.28;0.28;;;9.30;99.90;;;;;;5085091;28;20763;-86
2021/03/02 01:51:17;;;;;;;2.53;1.80;;;9.00;99.90;;;;;;5089859;28;20020;-87
2021/03/02 01:53:47;;;;;;;0.10;0.10;;;9.70;99.90;;;;;;5070821;28;20027;-87
2021/03/02 01:56:14;;;;;;;0.30;0.25;;;9.60;99.90;;;;;;5080537;28;20035;-86
2021/03/02 01:58:40;;;;;;;0.10;0.10;;;9.30;99.90;;;;;;5079207;28;20098;-87
2021/03/02 02:01:08;;;;;;;0.40;0.40;;;9.20;99.90;;;;;;5087381;28;20062;-87
2021/03/02 02:03:49;;;;;;;1.42;0.85;;;9.10;99.90;;;;;;5085497;28;20114;-86
2021/03/02 02:06:30;;;;;;;0.70;0.52;;;9.50;99.90;;;;;;5082902;28;20407;-86
2021/03/02 02:09:12;;;;;;;1.42;1.33;;;9.80;99.90;;;;;;5087131;28;20113;-87
2021/03/02 02:12:08;;;;;;;0.20;0.20;;;9.70;99.90;;;;;;5085119;28;20101;-87
2021/03/02 02:14:43;;;;;;;0.60;0.60;;;9.60;99.90;;;;;;5081275;28;20028;-87
2021/03/02 02:17:21;;;;;;;5.00;1.98;;;9.70;99.90;;;;;;5089397;28;20025;-85
2021/03/02 02:20:04;;;;;;;0.17;0.17;;;9.60;99.90;;;;;;5072770;28;20016;-86
2021/03/02 02:22:50;;;;;;;0.13;0.13;;;9.60;99.90;;;;;;5076831;28;20028;-86
2021/03/02 02:25:28;;;;;;;0.10;0.10;;;9.60;99.90;;;;;;5072718;28;20526;-87
2021/03/02 02:27:58;;;;;;;0.77;0.30;;;9.60;99.90;;;;;;5081497;28;20024;-87
2021/03/02 02:30:25;;;;;;;0.32;0.32;;;9.20;99.90;;;;;;5073689;28;20048;-89
2021/03/02 02:32:51;;;;;;;;;;;9.60;99.90;;;;;;5083724;28;20039;-88
2021/03/02 02:35:21;;;;;;;0.80;0.80;;;9.10;99.90;;;;;;5087560;28;19911;-87
2021/03/02 02:37:49;;;;;;;0.73;0.73;;;9.30;99.90;;;;;;5083622;28;20024;-88
2021/03/02 02:40:16;;;;;;;0.65;0.38;;;9.40;99.90;;;;;;5076061;28;20115;-88
2021/03/02 02:42:48;;;;;;;1.92;0.43;;;9.50;99.90;;;;;;5080743;28;20032;-89
2021/03/02 02:45:18;;;;;;;0.30;0.30;;;9.60;99.90;;;;;;5083476;28;20040;-86
2021/03/02 02:47:49;;;;;;;0.57;0.57;;;9.70;99.90;;;;;;5075316;28;20380;-86
2021/03/02 02:50:15;;;;;;;0.10;0.10;;;9.90;99.90;;;;;;5076514;28;20036;-86
2021/03/02 02:52:42;;;;;;;0.22;0.22;;;9.70;99.90;;;;;;5078414;28;20036;-88
2021/03/02 02:55:08;;;;;;;;;;;10.00;99.90;;;;;;5078540;28;20154;-87
2021/03/02 02:57:42;;;;;;;2.00;0.85;;;9.90;99.90;;;;;;5083260;28;19912;-88
2021/03/02 03:00:10;;;;;;;0.10;0.10;;;9.90;99.90;;;;;;5071798;28;20028;-87
2021/03/02 03:02:41;;;;;;;0.20;0.20;;;9.70;99.90;;;;;;5070201;28;20699;-87
2021/03/02 03:05:16;;;;;;;1.75;1.38;;;10.30;99.90;;;;;;5083489;28;20108;-88
2021/03/02 03:07:45;;;;;;;0.10;0.10;;;9.90;99.90;;;;;;5082312;28;20028;-88
2021/03/02 03:10:12;;;;;;;0.95;0.65;;;10.00;99.90;;;;;;5079463;28;20123;-88
2021/03/02 03:12:43;;;;;;;0.32;0.32;;;9.90;99.90;;;;;;5080436;28;20410;-88
2021/03/02 03:15:12;;;;;;;0.22;0.22;;;10.40;99.90;;;;;;5089712;28;20191;-87
2021/03/02 03:17:49;;;;;;;0.43;0.43;;;10.30;99.90;;;;;;5080393;28;20024;-87
2021/03/02 03:20:17;;;;;;;0.52;0.52;;;10.30;99.90;;;;;;5078940;28;20040;-88
2021/03/02 03:22:44;;;;;;;0.03;0.03;;;10.20;99.90;;;;;;5083336;28;20024;-88
2021/03/02 03:25:13;;;;;;;0.20;0.20;;;10.10;99.90;;;;;;5089365;28;20038;-88
2021/03/02 03:27:59;;;;;;;0.25;0.25;;;10.10;99.90;;;;;;5072597;28;20073;-87
2021/03/02 03:30:27;;;;;;;1.52;0.68;;;10.10;99.90;;;;;;5048030;28;1119324;-87
2021/03/02 03:33:02;;;;;;;0.13;0.13;;;9.90;99.90;;;;;;5081933;28;20032;-87
2021/03/02 03:35:28;;;;;;;0.43;0.43;;;10.00;99.90;;;;;;5076187;28;20035;-88
2021/03/02 03:37:54;;;;;;;11.93;1.13;;;10.10;99.90;;;;;;5074520;28;20553;-88
2021/03/02 03:40:21;;;;;;;0.10;0.10;;;10.20;99.90;;;;;;5080415;28;20123;-87
2021/03/02 03:42:48;;;;;;;3.38;1.27;;;10.30;99.90;;;;;;5077118;28;20059;-88
2021/03/02 03:45:15;;;;;;;0.55;0.55;;;10.20;99.90;;;;;;5073125;28;20028;-88
2021/03/02 03:47:42;;;;;;;;;;;10.50;99.90;;;;;;5082161;28;20060;-88
2021/03/02 03:50:09;;;;;;;0.10;0.10;;;10.50;99.90;;;;;;5075446;28;20011;-88
2021/03/02 03:52:40;;;;;;;1.95;0.95;;;10.20;99.90;;;;;;5077322;28;20025;-87
2021/03/02 03:55:10;;;;;;;0.00;0.00;;;10.20;99.90;;;;;;5076333;28;20107;-87
2021/03/02 03:57:39;;;;;;;0.38;0.32;;;10.40;99.90;;;;;;5075145;28;20033;-88
2021/03/02 04:00:07;;;;;;;0.15;0.15;;;10.10;99.90;;;;;;5086585;28;20556;-88
2021/03/02 04:02:34;;;;;;;2.63;1.58;;;10.20;99.90;;;;;;5085485;28;20035;-88
2021/03/02 04:05:06;;;;;;;1.05;1.00;;;10.30;99.90;;;;;;5077411;28;20885;-88
2021/03/02 04:07:35;;;;;;;0.10;0.10;;;10.30;99.90;;;;;;5081962;28;20024;-86
2021/03/02 04:10:06;;;;;;;0.43;0.43;;;10.20;99.90;;;;;;5077612;28;20507;-86
2021/03/02 04:12:47;;;;;;;0.10;0.10;;;10.70;99.90;;;;;;5080134;28;20090;-86
2021/03/02 04:15:16;;;;;;;0.47;0.47;;;10.50;99.90;;;;;;5086633;28;20036;-87
2021/03/02 04:17:53;;;;;;;0.10;0.10;;;10.30;99.90;;;;;;5083016;28;20507;-87
2021/03/02 04:20:20;;;;;;;0.52;0.47;;;10.20;99.90;;;;;;5087273;28;20044;-87
2021/03/02 04:22:47;;;;;;;0.63;0.63;;;10.50;99.90;;;;;;5077958;28;20099;-87
2021/03/02 04:25:13;;;;;;;;;;;10.50;99.90;;;;;;5080842;28;20040;-88
2021/03/02 04:27:40;;;;;;;0.13;0.10;;;10.60;99.90;;;;;;5079615;28;19915;-88
2021/03/02 04:30:07;;;;;;;0.03;0.03;;;10.40;99.90;;;;;;5083318;28;20106;-88
2021/03/02 04:32:34;;;;;;;0.25;0.25;;;10.70;99.90;;;;;;5089729;28;20035;-88
2021/03/02 04:34:59;;;;;;;12.13;1.20;;;10.60;99.90;;;;;;5079107;28;20108;-88
2021/03/02 04:37:25;;;;;;;0.20;0.20;;;10.70;99.90;;;;;;5074373;28;20103;-88
2021/03/02 04:39:52;;;;;;;0.30;0.30;;;10.50;99.90;;;;;;5086320;28;20085;-87
2021/03/02 04:42:19;;;;;;;4.28;1.15;;;10.50;99.90;;;;;;5082596;28;20032;-88
2021/03/02 04:44:45;;;;;;;;;;;10.70;99.90;;;;;;5076940;28;20033;-88
2021/03/02 04:47:12;;;;;;;0.00;0.00;;;10.80;99.90;;;;;;5083165;28;19908;-88
2021/03/02 04:49:38;;;;;;;0.68;0.68;;;10.70;99.90;;;;;;5070713;28;20447;-88
2021/03/02 04:52:06;;;;;;;0.70;0.70;;;10.90;99.90;;;;;;5082140;28;20097;-88
2021/03/02 04:54:34;;;;;;;0.32;0.28;;;10.90;99.90;;;;;;5077880;28;20119;-88
2021/03/02 04:57:02;;;;;;;0.10;0.10;;;10.80;99.90;;;;;;5077190;28;20027;-88
2021/03/02 04:59:29;;;;;;;0.10;0.10;;;10.80;99.90;;;;;;5075955;28;20028;-87
2021/03/02 05:01:55;;;;;;;0.28;0.28;;;10.90;99.90;;;;;;5080117;28;20028;-88
2021/03/02 05:04:21;;;;;;;0.70;0.20;;;10.70;99.90;;;;;;5077868;28;20951;-87
2021/03/02 05:06:47;;;;;;;0.22;0.22;;;11.00;99.90;;;;;;5077307;28;20028;-87
2021/03/02 05:09:12;;;;;;;1.23;0.40;;;11.00;99.90;;;;;;5077972;28;20085;-88
2021/03/02 05:11:39;;;;;;;3.88;1.05;;;10.80;99.90;;;;;;5084706;28;20031;-88
2021/03/02 05:14:06;;;;;;;1.77;1.10;;;10.80;99.90;;;;;;5085544;28;20025;-88
2021/03/02 05:16:32;;;;;;;0.08;0.08;;;10.80;99.90;;;;;;5077586;28;20029;-88
2021/03/02 05:18:59;;;;;;;5.78;0.70;;;10.80;99.90;;;;;;5074521;28;20751;-88
2021/03/02 05:21:26;;;;;;;0.10;0.10;;;10.80;99.90;;;;;;5082521;28;20026;-88
2021/03/02 05:23:53;;;;;;;0.20;0.20;;;10.90;99.90;;;;;;5075153;28;20424;-87
2021/03/02 05:26:22;;;;;;;;;;;11.20;99.90;;;;;;5083028;28;20032;-88
2021/03/02 05:28:49;;;;;;;0.15;0.15;;;10.80;99.90;;;;;;5086185;28;20619;-88
2021/03/02 05:31:15;;;;;;;0.20;0.20;;;10.90;99.90;;;;;;5080630;28;20049;-88
2021/03/02 05:33:41;;;;;;;1.02;0.95;;;10.90;99.90;;;;;;5076636;28;20044;-87
2021/03/02 05:36:07;;;;;;;0.13;0.13;;;11.00;99.60;;;;;;5076270;28;20144;-88
2021/03/02 05:38:35;;;;;;;1.35;0.77;;;10.90;99.50;;;;;;5075742;28;20025;-86
2021/03/02 05:41:02;;;;;;;10.88;0.63;;;11.00;99.60;;;;;;5075649;28;20033;-88
2021/03/02 05:43:29;;;;;;;0.20;0.20;;;10.90;99.70;;;;;;5078098;28;20496;-88
2021/03/02 05:45:56;;;;;;;0.22;0.22;;;10.70;99.50;;;;;;5076605;28;20044;-87
2021/03/02 05:48:29;;;;;;;2.72;1.30;;;10.80;99.90;;;;;;5080017;28;20399;-87
2021/03/02 05:50:55;;;;;;;0.00;0.00;;;10.90;99.60;;;;;;5078327;28;20051;-88
2021/03/02 05:53:23;;;;;;;0.10;0.10;;;10.80;99.40;;;;;;5078683;28;20115;-87
2021/03/02 05:55:50;;;;;;;0.00;0.00;;;10.90;99.30;;;;;;5080111;28;20103;-88
2021/03/02 05:58:16;;;;;;;1.35;0.30;;;10.90;99.00;;;;;;5073842;28;20111;-88
2021/03/02 06:00:43;;;;;;;0.03;0.03;;;10.90;98.90;;;;;;5073783;28;20019;-90
2021/03/02 06:03:09;;;;;;;0.10;0.10;;;10.90;99.00;;;;;;5081588;28;20050;-88
2021/03/02 06:05:35;;;;;;;0.00;0.00;;;10.80;98.90;;;;;;5072360;28;20056;-88
2021/03/02 06:08:01;;;;;;;0.93;0.50;;;10.80;98.80;;;;;;5071757;28;20356;-90
2021/03/02 06:10:31;;;;;;;0.00;0.00;;;10.90;98.90;;;;;;5081172;28;20054;-90
2021/03/02 06:13:00;;;;;;;0.10;0.10;;;10.80;99.70;;;;;;5074486;28;20034;-90
2021/03/02 06:15:29;;;;;;;0.10;0.10;;;10.70;99.10;;;;;;5072592;28;20669;-89
2021/03/02 06:18:16;;;;;;;0.10;0.10;;;10.70;98.70;;;;;;5082557;28;20178;-88
2021/03/02 06:20:43;;;;;;;0.00;0.00;;;11.00;98.40;;;;;;5079475;28;20023;-90
2021/03/02 06:23:28;;;;;;;0.43;0.43;;;10.50;98.90;;;;;;5074970;28;20073;-89
2021/03/02 06:25:56;;;;;;;0.10;0.10;;;10.60;98.60;;;;;;5082470;28;20484;-89
2021/03/02 06:28:42;;;;;;;5.95;0.93;;;10.50;99.90;;;;;;5081604;28;20032;-87
2021/03/02 06:31:28;;;;;;;1.20;0.97;;;10.50;99.10;;;;;;5084612;28;20052;-88
2021/03/02 06:34:10;;;;;;;0.05;0.05;;;10.70;98.70;;;;;;5079680;28;20068;-88
2021/03/02 06:36:37;;;;;;;0.10;0.10;;;10.60;98.90;;;;;;5079319;28;20047;-89
2021/03/02 06:39:23;;;;;;;0.70;0.43;;;10.60;99.10;;;;;;5092087;28;20077;-87
2021/03/02 06:41:49;;;;;;;0.00;0.00;;;10.50;98.90;;;;;;5082237;28;20484;-88
2021/03/02 06:44:16;;;;;;;0.10;0.10;;;10.80;98.70;;;;;;5088179;28;20039;-90
2021/03/02 06:46:42;;;;;;;0.10;0.10;;;10.80;98.80;;;;;;5095343;28;20093;-89
2021/03/02 06:49:08;;;;;;;9.20;1.33;;;10.50;99.10;;;;;;5101954;27;20475;-89
2021/03/02 06:51:36;;;;;;;0.20;0.20;;;10.70;98.90;;;;;;5090086;28;20028;-88
2021/03/02 06:54:11;;;;;;;0.70;0.40;;;10.80;98.70;;;;;;5092220;28;20019;-89
2021/03/02 06:56:38;;;;;;;0.05;0.05;;;11.00;98.50;;;;;;5085548;28;20031;-89
2021/03/02 06:59:34;;;;;;;0.32;0.28;;;10.80;98.70;;;;;;5093083;28;20042;-90
2021/03/02 07:02:00;;;;;;;0.60;0.50;;;10.90;98.30;;;;;;5081762;28;20068;-90
2021/03/02 07:04:30;;;;;;;0.10;0.10;;;10.80;98.70;;;;;;5092580;28;20035;-89
2021/03/02 07:07:07;;;;;;;0.10;0.10;;;11.00;98.50;;;;;;5092925;28;20032;-92
2021/03/02 07:09:32;;;;;;;0.10;0.10;;;11.00;98.70;;;;;;5103044;28;20053;-90
2021/03/02 07:12:01;;;;;;;0.08;0.08;;;11.00;98.20;;;;;;5096078;28;20032;-91
2021/03/02 07:14:27;;;;;;;0.10;0.10;;;11.00;98.30;;;;;;5091851;28;20051;-89
2021/03/02 07:16:55;;;;;;;0.57;0.57;;;11.00;98.40;;;;;;5087989;28;20566;-90
2021/03/02 07:19:23;;;;;;;0.43;0.43;;;11.10;98.20;;;;;;5074215;28;20569;-91
2021/03/02 07:21:53;;;;;;;1.27;0.63;;;11.10;98.30;;;;;;5082370;28;20044;-91
2021/03/02 07:24:24;;;;;;;0.00;0.00;;;11.10;98.50;;;;;;5079144;28;20108;-89
2021/03/02 07:26:50;;;;;;;0.55;0.35;;;11.00;98.60;;;;;;5089639;28;20032;-87
2021/03/02 07:29:16;;;;;;;0.22;0.22;;;11.10;98.10;;;;;;5090882;28;20048;-90
2021/03/02 07:31:42;;;;;;;0.90;0.52;;;11.00;98.20;;;;;;5091043;28;20055;-91
2021/03/02 07:34:11;;;;;;;0.22;0.22;;;11.20;98.40;;;;;;5091413;28;20123;-91
2021/03/02 07:36:43;;;;;;;0.00;0.00;;;11.20;98.40;;;;;;5091506;28;20071;-91
2021/03/02 07:39:16;;;;;;;0.20;0.20;;;11.30;98.10;;;;;;5087657;28;20396;-90
2021/03/02 07:41:48;;;;;;;5.13;0.55;;;11.40;98.40;;;;;;5079728;28;20027;-90
2021/03/02 07:44:15;;;;;;;1.05;1.00;;;11.70;97.90;;;;;;5091249;28;20491;-90
2021/03/02 07:46:41;;;;;;;;;;;11.90;97.70;;;;;;5090770;28;20017;-90
2021/03/02 07:49:22;;;;;;;0.32;0.32;;;12.00;97.50;;;;;;5089184;28;19905;-90
2021/03/02 07:51:57;;;;;;;0.10;0.10;;;12.10;97.10;;;;;;5092351;28;20028;-89
2021/03/02 07:54:23;;;;;;;0.17;0.17;;;12.20;97.40;;;;;;5091555;28;20028;-91
2021/03/02 07:57:09;;;;;;;0.60;0.60;;;12.50;97.20;;;;;;5089254;28;20115;-90
2021/03/02 07:59:35;;;;;;;0.55;0.40;;;12.70;96.80;;;;;;5077682;28;20036;-89
2021/03/02 08:02:26;;;;;;;0.13;0.13;;;12.60;96.40;;;;;;5074333;28;20532;-88
2021/03/02 08:04:52;;;;;;;0.35;0.35;;;12.50;96.90;;;;;;5073275;28;20048;-90
2021/03/02 08:07:23;;;;;;;0.13;0.13;;;12.40;96.80;;;;;;5084922;28;20024;-88
2021/03/02 08:09:50;;;;;;;0.30;0.30;;;12.40;97.00;;;;;;5084711;28;20028;-89
2021/03/02 08:12:29;;;;;;;0.10;0.10;;;11.90;97.30;;;;;;5079824;28;20028;-89
2021/03/02 08:14:56;;;;;;;0.10;0.10;;;11.90;97.50;;;;;;5090814;28;20059;-91
2021/03/02 08:17:23;;;;;;;0.10;0.10;;;11.80;97.90;;;;;;5092900;28;20016;-90
2021/03/02 08:20:08;;;;;;;0.10;0.10;;;12.10;97.90;;;;;;5093243;28;20025;-92
2021/03/02 08:22:34;;;;;;;0.00;0.00;;;12.40;97.10;;;;;;5092535;28;20063;-92
2021/03/02 08:25:10;;;;;;;0.10;0.10;;;12.30;97.30;;;;;;5094299;28;20469;-91
2021/03/02 08:27:51;;;;;;;0.57;0.57;;;12.50;97.50;;;;;;5092553;28;20031;-92
2021/03/02 08:30:26;;;;;;;0.43;0.43;;;12.70;96.50;;;;;;5092246;28;20096;-92
2021/03/02 08:32:54;;;;;;;0.40;0.40;;;12.70;96.60;;;;;;5112573;28;20027;-92
2021/03/02 08:35:27;;;;;;;0.38;0.38;;;12.90;96.10;;;;;;5108664;28;20024;-92
2021/03/02 08:37:58;;;;;;;0.00;0.00;;;12.90;96.30;;;;;;5091961;28;20016;-91
2021/03/02 08:40:30;;;;;;;0.05;0.03;;;13.30;95.70;;;;;;5090143;28;20058;-93
2021/03/02 08:43:20;;;;;;;0.47;0.47;;;13.60;95.90;;;;;;5091055;28;20020;-91
2021/03/02 08:45:49;;;;;;;5.78;1.60;;;13.80;94.90;;;;;;5091170;28;20032;-92
2021/03/02 08:48:23;;;;;;;0.00;0.00;;;13.60;95.30;;;;;;5090556;28;20028;-92
2021/03/02 08:50:56;;;;;;;0.28;0.28;;;13.90;95.00;;;;;;5091906;28;20048;-93
2021/03/02 08:53:37;;;;;;;0.85;0.85;;;13.80;94.90;;;;;;5091709;28;20032;-92
2021/03/02 08:56:20;;;;;;;0.30;0.30;;;14.00;94.80;;;;;;5090265;28;20690;-92
2021/03/02 08:58:52;;;;;;;0.10;0.10;;;14.40;95.10;;;;;;5090983;28;20063;-92
2021/03/02 09:01:28;;;;;;;0.65;0.65;;;14.60;94.30;;;;;;5091274;28;20020;-92
2021/03/02 09:04:16;;;;;;;0.32;0.32;;;14.80;94.30;;;;;;5091465;28;20095;-91
2021/03/02 09:06:51;;;;;;;5.03;0.98;;;15.00;94.00;;;;;;5091024;28;20024;-92
2021/03/02 09:09:22;;;;;;;0.10;0.10;;;14.90;93.90;;;;;;5091447;28;20020;-92
2021/03/02 09:11:51;;;;;;;0.57;0.57;;;14.80;94.20;;;;;;5075961;28;20043;-93
2021/03/02 09:14:22;;;;;;;0.32;0.32;;;15.60;92.80;;;;;;5077808;28;20016;-92
2021/03/02 09:16:50;;;;;;;0.32;0.32;;;15.10;92.90;;;;;;5090814;28;20024;-92
2021/03/02 09:19:30;;;;;;;0.43;0.43;;;15.10;93.20;;;;;;5070650;28;20016;-91
2021/03/02 09:22:16;;;;;;;1.15;1.02;;;14.60;93.90;;;;;;5086998;28;20035;-92
2021/03/02 09:24:56;;;;;;;2.75;1.02;;;14.30;93.80;;;;;;5091341;28;20021;-92
2021/03/02 09:27:33;;;;;;;0.35;0.35;;;14.00;94.20;;;;;;5088511;28;20036;-93
2021/03/02 09:29:59;;;;;;;0.25;0.25;;;14.70;94.10;;;;;;5081505;28;20052;-92
2021/03/02 09:32:28;;;;;;;0.20;0.20;;;15.10;93.30;;;;;;5091270;28;20043;-92
2021/03/02 09:35:00;;;;;;;0.65;0.65;;;15.00;92.90;;;;;;5091200;28;20028;-92
2021/03/02 09:37:26;;;;;;;0.30;0.30;;;15.20;93.00;;;;;;5091208;28;20024;-92
2021/03/02 09:40:00;;;;;;;1.17;0.83;;;15.60;92.40;;;;;;5090739;28;20020;-92
2021/03/02 09:42:28;;;;;;;0.65;0.25;;;15.10;92.80;;;;;;5091880;28;20266;-92
2021/03/02 09:44:59;;;;;;;8.50;0.52;;;15.00;93.10;;;;;;5097101;28;20081;-93
2021/03/02 09:47:28;;;;;;;2.17;0.65;;;15.30;92.50;;;;;;5100744;28;20028;-93
2021/03/02 09:50:10;;;;;;;0.47;0.47;;;15.40;92.50;;;;;;5090600;28;20020;-92
2021/03/02 09:52:40;;;;;;;1.65;1.55;;;15.80;92.10;;;;;;5095952;28;20024;-93
2021/03/02 09:55:26;;;;;;;2.80;1.38;;;15.80;92.10;;;;;;5094931;28;20472;-93
2021/03/02 09:58:16;;;;;;;0.75;0.75;;;17.00;90.30;;;;;;5094231;28;20123;-92
2021/03/02 10:00:45;;;;;;;0.75;0.75;;;17.00;96.90;;;;;;5081105;28;20032;-92
2021/03/02 10:03:14;;;;;;;0.10;0.10;;;17.60;88.00;;;;;;5094622;28;20111;-92
2021/03/02 10:05:52;;;;;;;5.28;2.30;;;16.80;90.10;;;;;;5094225;28;20024;-93
2021/03/02 10:08:29;;;;;;;1.38;1.02;;;16.20;91.10;;;;;;5094503;28;20035;-92
2021/03/02 10:11:01;;;;;;;0.17;0.17;;;16.50;90.90;;;;;;5073922;28;20031;-92
2021/03/02 10:13:29;;;;;;;0.52;0.52;;;17.00;90.20;;;;;;5074416;28;20102;-92
2021/03/02 10:16:22;;;;;;;0.10;0.10;;;16.30;90.50;;;;;;5094876;28;20022;-93
2021/03/02 10:18:57;;;;;;;0.65;0.55;;;16.30;91.10;;;;;;5093996;28;20108;-92
2021/03/02 10:21:26;;;;;;;0.45;0.45;;;16.30;90.70;;;;;;5094298;28;20492;-93
2021/03/02 10:23:55;;;;;;;3.95;1.00;;;15.90;90.70;;;;;;5093687;28;20031;-92
2021/03/02 10:26:26;;;;;;;2.50;0.75;;;16.70;96.40;;;;;;5094431;28;20032;-92
2021/03/02 10:28:52;;;;;;;0.20;0.20;;;16.10;90.10;;;;;;5093902;28;20039;-92
2021/03/02 10:31:18;;;;;;;0.20;0.20;;;16.00;90.50;;;;;;5094043;28;20105;-92
2021/03/02 10:33:45;;;;;;;0.82;0.82;;;15.90;90.60;;;;;;5093992;28;20043;-92
2021/03/02 10:36:28;;;;;;;0.20;0.20;;;15.90;90.80;;;;;;5093935;28;20016;-92
2021/03/02 10:38:58;;;;;;;0.63;0.60;;;16.90;89.90;;;;;;5108087;28;20538;-92
2021/03/02 10:41:25;;;;;;;0.25;0.25;;;17.90;87.40;;;;;;5073586;28;20034;-93
2021/03/02 10:43:52;;;;;;;0.30;0.30;;;18.30;85.70;;;;;;5073757;28;20024;-93
2021/03/02 10:46:18;;;;;;;;;;;19.40;83.50;;;;;;5088650;28;20085;-93
2021/03/02 10:48:46;;;;;;;0.22;0.15;;;21.30;78.20;;;;;;5094109;28;19911;-93
2021/03/02 10:51:13;;;;;;;1.58;0.63;;;19.00;81.40;;;;;;5093801;28;20021;-93
2021/03/02 10:53:39;;;;;;;1.98;1.33;;;18.60;82.90;;;;;;5093765;28;20071;-93
2021/03/02 10:56:05;;;;;;;0.40;0.40;;;18.40;83.60;;;;;;5093940;28;20074;-92
2021/03/02 10:58:31;;;;;;;0.90;0.90;;;17.40;85.70;;;;;;5094004;28;20047;-93
2021/03/02 11:00:57;;;;;;;0.73;0.73;;;18.50;84.90;;;;;;5092902;28;20483;-93
2021/03/02 11:03:23;;;;;;;0.20;0.20;;;20.30;79.00;;;;;;5093659;28;20028;-93
2021/03/02 11:05:50;;;;;;;1.98;1.40;;;19.50;81.00;;;;;;5085636;28;20033;-92
2021/03/02 11:08:16;;;;;;;0.70;0.70;;;19.70;81.70;;;;;;5100395;28;20746;-92
2021/03/02 11:10:42;;;;;;;0.13;0.13;;;19.80;80.00;;;;;;5093465;28;20116;-93
2021/03/02 11:13:08;;;;;;;0.10;0.10;;;20.40;80.30;;;;;;5093688;28;20060;-93
2021/03/02 11:15:33;;;;;;;0.00;0.00;;;20.00;79.40;;;;;;5093569;28;20020;-93
2021/03/02 11:17:59;;;;;;;13.23;0.53;;;19.00;82.20;;;;;;5093633;28;20435;-93
2021/03/02 11:20:25;;;;;;;2.90;1.80;;;18.40;81.10;;;;;;5090046;28;20115;-92
2021/03/02 11:22:51;;;;;;;2.73;0.50;;;19.20;80.70;;;;;;5081074;28;20032;-93
2021/03/02 11:25:19;;;;;;;0.37;0.37;;;19.20;81.70;;;;;;5094534;28;20024;-93
2021/03/02 11:27:47;;;;;;;1.45;1.00;;;19.90;80.70;;;;;;5093523;28;20052;-93
2021/03/02 11:30:14;;;;;;;0.50;0.50;;;19.60;80.00;;;;;;5106063;28;20051;-92
2021/03/02 11:32:41;;;;;;;0.10;0.10;;;20.20;79.80;;;;;;5113540;28;20023;-92
2021/03/02 11:35:08;;;;;;;0.28;0.28;;;20.80;75.20;;;;;;5113935;28;20380;-93
2021/03/02 11:37:43;;;;;;;;;;;20.00;77.80;;;;;;5111552;28;20034;-93
2021/03/02 11:40:15;;;;;;;3.65;1.08;;;20.20;77.00;;;;;;5093638;28;19999;-93
2021/03/02 11:42:41;;;;;;;0.25;0.25;;;18.60;80.60;;;;;;5093269;28;20032;-93
2021/03/02 11:45:09;;;;;;;0.13;0.13;;;18.70;78.70;;;;;;5093200;28;20020;-93
2021/03/02 11:47:35;;;;;;;0.15;0.15;;;17.90;80.40;;;;;;5092642;28;20062;-93
2021/03/02 11:50:01;;;;;;;0.28;0.28;;;19.10;78.90;;;;;;5093236;28;20024;-92
2021/03/02 11:52:27;;;;;;;0.80;0.30;;;19.00;78.90;;;;;;5092941;28;20039;-92
2021/03/02 11:54:53;;;;;;;0.50;0.50;;;17.70;81.20;;;;;;5092507;28;20047;-92
2021/03/02 11:57:19;;;;;;;0.23;0.23;;;18.10;80.00;;;;;;5093048;28;20016;-93
2021/03/02 11:59:45;;;;;;;0.40;0.40;;;17.60;81.10;;;;;;5092533;28;20162;-92
2021/03/02 12:02:13;;;;;;;2.20;1.00;;;18.30;80.30;;;;;;5092608;28;20055;-93
2021/03/02 12:04:39;;;;;;;0.63;0.45;;;18.40;79.40;;;;;;5092364;28;20123;-93
2021/03/02 12:07:05;;;;;;;0.40;0.40;;;17.80;80.80;;;;;;5092420;28;20066;-92
2021/03/02 12:09:31;;;;;;;0.10;0.10;;;17.80;79.90;;;;;;5093032;28;20024;-93
2021/03/02 12:11:57;;;;;;;0.65;0.65;;;18.20;79.30;;;;;;5091861;28;20756;-93
2021/03/02 12:14:23;;;;;;;0.10;0.10;;;18.60;78.40;;;;;;5091313;28;20024;-92
2021/03/02 12:16:49;;;;;;;0.47;0.47;;;18.30;79.40;;;;;;5092221;28;20020;-93
2021/03/02 12:19:14;;;;;;;3.07;1.33;;;18.10;79.00;;;;;;5092669;28;20392;-93
2021/03/02 12:21:40;;;;;;;1.67;0.60;;;17.70;80.00;;;;;;5092442;28;20289;-93
2021/03/02 12:24:06;;;;;;;0.40;0.40;;;17.90;79.00;;;;;;5091757;28;20023;-93
2021/03/02 12:26:32;;;;;;;0.22;0.22;;;17.90;79.00;;;;;;5093551;28;20024;-93
2021/03/02 12:28:59;;;;;;;0.27;0.27;;;17.40;80.90;;;;;;5092201;28;20077;-93
2021/03/02 12:31:25;;;;;;;0.10;0.10;;;17.50;79.00;;;;;;5091928;28;20024;-92
2021/03/02 12:33:51;;;;;;;0.07;0.07;;;17.40;80.70;;;;;;5092382;28;20056;-93
2021/03/02 12:36:17;;;;;;;0.87;0.83;;;16.50;80.90;;;;;;5092130;28;20511;-92
2021/03/02 12:38:43;;;;;;;0.87;0.50;;;16.70;81.60;;;;;;5091437;28;20073;-93
2021/03/02 12:41:09;;;;;;;3.53;1.07;;;17.20;79.40;;;;;;5087831;28;20017;-93
2021/03/02 12:43:34;;;;;;;1.00;0.87;;;16.90;80.20;;;;;;5082071;28;20559;-94
2021/03/02 12:46:01;;;;;;;0.10;0.10;;;16.70;80.70;;;;;;5092113;28;20137;-94
2021/03/02 12:48:26;;;;;;;0.52;0.52;;;16.80;81.40;;;;;;5092128;28;20396;-93
2021/03/02 12:50:52;;;;;;;0.10;0.10;;;16.70;82.00;;;;;;5092335;28;20036;-93
2021/03/02 12:53:18;;;;;;;0.27;0.27;;;16.80;81.10;;;;;;5091713;28;20082;-94
2021/03/02 12:55:44;;;;;;;1.07;0.87;;;16.60;82.30;;;;;;5092104;28;20025;-93
2021/03/02 12:58:10;;;;;;;2.37;0.97;;;16.80;82.30;;;;;;5091644;28;20495;-93
2021/03/02 13:00:36;;;;;;;0.30;0.30;;;16.90;82.10;;;;;;5091242;28;20491;-92
2021/03/02 13:03:02;;;;;;;0.17;0.17;;;17.20;82.30;;;;;;5093017;28;20467;-93